Time;durP1;ratioP1;P1;durP2;ratioP2;P2;SDS_P1;SDS_P2;PMS_P1;PMS_P2;Temp;Humidity;BMP_temperature;BMP_pressure;BME280_temperature;BME280_humidity;BME280_pressure;Samples;Min_cycle;Max_cycle;Signal;HPM_P1;HPM_P2
2022/05/03 00:02:58;;;;;;;19.60;10.75;;;17.10;92.80;;;;;;5059740;28;20013;-61
2022/05/03 00:05:37;;;;;;;13.07;6.75;;;17.30;92.90;;;;;;5006107;28;20038;-62
2022/05/03 00:08:38;;;;;;;14.45;6.05;;;17.50;92.60;;;;;;5058922;28;20017;-74
2022/05/03 00:11:29;;;;;;;15.07;6.18;;;17.80;92.40;;;;;;5057445;28;20033;-74
2022/05/03 00:14:00;;;;;;;14.70;7.40;;;18.00;91.30;;;;;;5050207;28;20025;-75
2022/05/03 00:16:27;;;;;;;13.73;5.90;;;18.10;91.20;;;;;;5047424;28;20090;-75
2022/05/03 00:18:55;;;;;;;9.55;4.78;;;18.20;90.50;;;;;;5065901;28;20058;-76
2022/05/03 00:21:22;;;;;;;11.48;4.82;;;18.30;90.60;;;;;;5067518;28;20056;-75
2022/05/03 00:23:50;;;;;;;8.48;3.28;;;18.50;90.70;;;;;;5057650;28;20561;-74
2022/05/03 00:26:18;;;;;;;6.50;2.97;;;18.80;90.50;;;;;;5054988;28;20082;-75
2022/05/03 00:28:46;;;;;;;6.20;2.47;;;18.90;88.50;;;;;;5065380;28;20017;-75
2022/05/03 00:31:15;;;;;;;6.47;2.10;;;19.00;87.60;;;;;;5065694;28;20020;-75
2022/05/03 00:33:43;;;;;;;6.97;2.35;;;19.10;85.20;;;;;;5055521;28;20060;-75
2022/05/03 00:36:13;;;;;;;4.63;2.28;;;19.20;85.20;;;;;;5055554;28;20052;-74
2022/05/03 00:38:41;;;;;;;3.60;1.50;;;19.20;85.00;;;;;;5063832;28;20020;-76
2022/05/03 00:41:11;;;;;;;6.45;1.80;;;19.30;87.00;;;;;;5063225;28;20029;-75
2022/05/03 00:43:56;;;;;;;8.02;1.70;;;19.40;83.90;;;;;;5047050;28;20028;-73
2022/05/03 00:46:28;;;;;;;9.02;2.88;;;19.60;85.80;;;;;;5066930;28;20017;-75
2022/05/03 00:48:57;;;;;;;2.67;1.20;;;19.80;84.80;;;;;;5066713;28;20028;-76
2022/05/03 00:51:49;;;;;;;3.03;1.42;;;19.90;84.00;;;;;;5067125;28;20025;-76
2022/05/03 00:54:19;;;;;;;5.30;1.42;;;20.00;81.60;;;;;;5053891;28;20055;-75
2022/05/03 00:57:05;;;;;;;6.07;2.00;;;20.20;82.50;;;;;;5047174;28;20033;-76
2022/05/03 01:00:05;;;;;;;9.40;1.65;;;20.40;83.20;;;;;;5047302;28;20029;-73
2022/05/03 01:02:55;;;;;;;7.88;2.03;;;20.60;81.50;;;;;;5059939;28;20090;-77
2022/05/03 01:05:28;;;;;;;4.63;1.40;;;20.70;78.00;;;;;;5065468;28;20091;-77
2022/05/03 01:08:10;;;;;;;3.30;1.20;;;20.70;77.20;;;;;;5064490;28;20508;-76
2022/05/03 01:10:59;;;;;;;4.63;1.42;;;20.80;79.60;;;;;;5068123;28;20025;-76
2022/05/03 01:13:34;;;;;;;6.10;1.35;;;21.00;78.70;;;;;;5066021;28;20052;-75
2022/05/03 01:16:11;;;;;;;4.38;1.80;;;21.10;76.90;;;;;;5065303;28;20136;-75
2022/05/03 01:18:54;;;;;;;6.22;1.77;;;21.20;76.40;;;;;;5056794;28;20052;-76
2022/05/03 01:21:37;;;;;;;3.63;1.30;;;21.40;74.30;;;;;;5070147;28;20036;-67
2022/05/03 01:24:17;;;;;;;6.70;1.27;;;21.50;74.70;;;;;;5066532;28;20021;-75
2022/05/03 01:27:17;;;;;;;3.75;1.40;;;21.50;72.90;;;;;;5073359;28;20048;-74
2022/05/03 01:29:46;;;;;;;4.22;1.23;;;21.60;75.70;;;;;;5062365;28;20032;-76
2022/05/03 01:32:17;;;;;;;5.15;1.20;;;21.60;72.60;;;;;;5069407;28;20684;-76
2022/05/03 01:34:46;;;;;;;5.35;1.08;;;21.70;73.20;;;;;;5060607;28;20545;-75
2022/05/03 01:37:53;;;;;;;2.85;1.00;;;21.90;74.40;;;;;;5065925;28;20023;-72
2022/05/03 01:40:24;;;;;;;4.63;0.80;;;22.10;74.30;;;;;;5067884;28;20025;-74
2022/05/03 01:43:01;;;;;;;4.20;1.40;;;22.20;72.50;;;;;;5062373;28;20028;-73
2022/05/03 01:45:51;;;;;;;5.50;1.20;;;22.30;71.70;;;;;;5066303;28;20488;-74
2022/05/03 01:52:20;;;;;;;4.97;1.30;;;22.40;69.80;;;;;;5061599;28;20067;-74
2022/05/03 01:55:03;;;;;;;6.95;1.15;;;22.50;69.40;;;;;;5037618;28;20044;-73
2022/05/03 01:57:45;;;;;;;5.35;1.52;;;22.60;67.10;;;;;;5069666;28;20036;-73
2022/05/03 02:00:13;;;;;;;2.55;1.25;;;22.70;69.30;;;;;;5059470;28;20788;-73
2022/05/03 02:02:58;;;;;;;12.82;1.40;;;22.80;68.90;;;;;;5067653;28;20085;-74
2022/05/03 02:05:41;;;;;;;7.80;1.50;;;22.80;67.00;;;;;;5065857;28;21397;-74
2022/05/03 02:08:18;;;;;;;7.30;1.42;;;22.70;63.70;;;;;;5058354;28;20029;-73
2022/05/03 02:11:03;;;;;;;3.78;1.20;;;22.60;64.60;;;;;;5067560;28;20373;-73
2022/05/03 02:16:45;;;;;;;6.05;1.15;;;22.70;67.30;;;;;;5059978;28;20547;-73
2022/05/03 02:19:23;;;;;;;;;;;22.80;67.70;;;;;;5058705;28;20095;-75
2022/05/03 02:22:11;;;;;;;6.82;1.48;;;22.80;66.20;;;;;;5067495;28;19908;-73
2022/05/03 02:24:46;;;;;;;7.20;1.17;;;22.70;65.80;;;;;;5067393;28;20075;-73
2022/05/03 02:27:16;;;;;;;6.85;1.10;;;22.80;66.80;;;;;;5060633;28;20055;-73
2022/05/03 02:29:49;;;;;;;4.63;1.10;;;22.90;67.00;;;;;;5069614;28;20032;-72
2022/05/03 02:32:30;;;;;;;4.28;1.00;;;23.00;67.30;;;;;;5069632;28;20040;-73
2022/05/03 02:35:04;;;;;;;6.75;1.10;;;23.10;65.80;;;;;;5063826;28;20036;-73
2022/05/03 02:38:01;;;;;;;11.02;1.30;;;23.20;65.20;;;;;;5059538;28;20032;-73
2022/05/03 02:40:29;;;;;;;6.43;1.88;;;23.30;64.50;;;;;;5067955;28;20554;-73
2022/05/03 02:42:58;;;;;;;3.55;0.90;;;23.40;64.40;;;;;;5070284;28;20025;-72
2022/05/03 02:45:26;;;;;;;6.22;1.02;;;23.40;64.30;;;;;;5071341;28;20071;-73
2022/05/03 02:47:56;;;;;;;4.75;0.85;;;23.50;63.20;;;;;;5070532;28;20025;-73
2022/05/03 02:50:53;;;;;;;5.03;0.85;;;23.60;60.20;;;;;;5067332;28;20032;-73
2022/05/03 02:53:56;;;;;;;5.18;0.93;;;23.50;58.60;;;;;;5066915;28;20070;-72
2022/05/03 02:56:32;;;;;;;3.55;1.02;;;23.50;59.50;;;;;;5061623;28;20066;-71
2022/05/03 03:02:53;;;;;;;2.25;0.75;;;23.60;58.50;;;;;;5067539;28;20102;-72
2022/05/03 03:05:23;;;;;;;3.03;0.88;;;23.70;58.60;;;;;;5067568;28;20362;-72
2022/05/03 03:08:01;;;;;;;1.77;0.50;;;23.80;58.30;;;;;;5068664;28;20043;-72
2022/05/03 03:10:50;;;;;;;2.42;0.70;;;23.90;58.70;;;;;;5064266;28;20150;-73
2022/05/03 03:13:42;;;;;;;3.30;0.52;;;23.90;57.70;;;;;;5055423;28;20058;-73
2022/05/03 03:16:14;;;;;;;4.63;0.63;;;23.80;57.20;;;;;;5068540;28;20559;-73
2022/05/03 03:18:47;;;;;;;1.85;0.80;;;23.80;56.50;;;;;;5057441;28;20025;-72
2022/05/03 03:21:16;;;;;;;1.40;0.55;;;23.90;57.60;;;;;;5069407;28;20215;-74
2022/05/03 03:23:44;;;;;;;4.97;0.93;;;23.90;55.90;;;;;;5067653;28;20060;-73
2022/05/03 03:26:12;;;;;;;3.35;0.65;;;23.80;55.20;;;;;;5062754;28;20081;-73
2022/05/03 03:28:42;;;;;;;5.07;1.27;;;23.70;54.30;;;;;;5066273;28;20021;-72
2022/05/03 03:31:10;;;;;;;1.52;0.57;;;23.60;57.10;;;;;;5054740;28;20481;-72
2022/05/03 03:33:41;;;;;;;3.47;0.73;;;23.60;57.10;;;;;;5064917;28;20055;-72
2022/05/03 03:36:10;;;;;;;4.60;0.80;;;23.70;57.90;;;;;;5056417;28;20386;-75
2022/05/03 03:38:46;;;;;;;6.10;1.02;;;23.70;57.30;;;;;;5065602;28;20029;-72
2022/05/03 03:41:13;;;;;;;1.90;0.68;;;23.80;56.90;;;;;;5066062;28;20025;-72
2022/05/03 03:43:41;;;;;;;5.25;0.60;;;23.90;56.60;;;;;;5061636;28;20099;-71
2022/05/03 03:46:08;;;;;;;2.03;0.50;;;23.90;56.00;;;;;;5060748;28;20029;-70
2022/05/03 03:48:36;;;;;;;1.85;0.68;;;23.80;55.10;;;;;;5059426;28;20043;-70
2022/05/03 03:51:04;;;;;;;1.58;0.50;;;23.80;55.40;;;;;;5061634;28;20028;-70
2022/05/03 03:53:33;;;;;;;5.30;0.80;;;23.70;55.00;;;;;;5057793;28;20017;-69
2022/05/03 03:56:01;;;;;;;5.78;0.65;;;23.80;55.90;;;;;;5060417;28;20036;-69
2022/05/03 03:58:29;;;;;;;2.30;0.75;;;23.70;53.40;;;;;;5059966;28;20016;-68
2022/05/03 04:00:56;;;;;;;4.68;0.70;;;23.70;53.50;;;;;;5062623;28;20078;-68
2022/05/03 04:03:26;;;;;;;2.80;0.40;;;23.70;53.10;;;;;;5058412;28;20017;-68
2022/05/03 04:05:53;;;;;;;1.77;0.50;;;23.70;54.00;;;;;;5058959;28;20017;-68
2022/05/03 04:08:21;;;;;;;4.05;0.77;;;23.70;53.70;;;;;;5061017;28;20032;-68
2022/05/03 04:10:49;;;;;;;2.17;0.95;;;23.60;55.30;;;;;;5058882;28;20103;-69
2022/05/03 04:13:17;;;;;;;3.83;0.50;;;23.50;56.10;;;;;;5074797;28;20055;-68
2022/05/03 04:15:44;;;;;;;6.43;0.75;;;23.50;55.30;;;;;;5058166;28;20033;-70
2022/05/03 04:18:12;;;;;;;2.75;0.50;;;23.50;54.90;;;;;;5058784;28;20029;-68
2022/05/03 04:20:39;;;;;;;3.92;0.63;;;23.50;55.20;;;;;;5057833;28;20029;-72
2022/05/03 04:23:09;;;;;;;1.80;0.60;;;23.50;55.20;;;;;;5058076;28;20021;-71
2022/05/03 04:25:36;;;;;;;2.33;0.50;;;23.40;55.90;;;;;;5055469;28;20029;-70
2022/05/03 04:28:04;;;;;;;3.35;0.82;;;23.40;55.10;;;;;;5057695;28;20017;-70
2022/05/03 04:30:31;;;;;;;3.75;1.23;;;23.30;55.60;;;;;;5058467;28;20025;-70
2022/05/03 04:32:58;;;;;;;2.60;0.80;;;23.20;56.30;;;;;;5055435;28;20093;-69
2022/05/03 04:35:25;;;;;;;2.45;0.65;;;23.20;55.60;;;;;;5057708;28;20032;-68
2022/05/03 04:37:53;;;;;;;2.45;0.70;;;23.20;55.20;;;;;;5057719;28;20021;-70
2022/05/03 04:40:20;;;;;;;5.28;0.65;;;23.20;56.00;;;;;;5059319;28;20069;-69
2022/05/03 04:42:47;;;;;;;2.70;0.60;;;23.20;54.90;;;;;;5059789;28;20025;-70
2022/05/03 04:45:14;;;;;;;1.48;0.52;;;23.10;54.90;;;;;;5056867;28;20048;-71
2022/05/03 04:47:42;;;;;;;4.03;0.60;;;23.10;53.60;;;;;;5059366;28;20025;-72
2022/05/03 04:50:11;;;;;;;0.95;0.40;;;23.00;54.10;;;;;;5058925;28;20055;-73
2022/05/03 04:52:39;;;;;;;2.90;0.40;;;23.00;54.60;;;;;;5061040;28;20081;-68
2022/05/03 04:55:07;;;;;;;3.70;0.80;;;22.90;54.80;;;;;;5068201;28;20036;-67
2022/05/03 04:57:34;;;;;;;3.47;0.52;;;22.90;55.40;;;;;;5064209;28;20021;-71
2022/05/03 05:00:01;;;;;;;1.00;0.50;;;22.80;56.10;;;;;;5059103;28;20033;-71
2022/05/03 05:02:29;;;;;;;3.05;0.60;;;22.80;56.70;;;;;;5067923;28;20053;-69
2022/05/03 05:04:56;;;;;;;2.88;0.80;;;22.80;57.20;;;;;;5062555;28;20024;-70
2022/05/03 05:07:23;;;;;;;4.22;0.73;;;22.70;56.40;;;;;;5067514;28;20035;-70
2022/05/03 05:12:35;;;;;;;2.40;0.60;;;22.60;56.20;;;;;;5068891;28;20044;-69
2022/05/03 05:15:03;;;;;;;4.97;0.60;;;22.60;57.10;;;;;;5059276;28;20043;-68
2022/05/03 05:17:33;;;;;;;6.03;1.08;;;22.50;57.00;;;;;;5084115;28;20051;-69
2022/05/03 05:20:00;;;;;;;2.28;0.70;;;22.50;57.30;;;;;;5068906;28;20524;-68
2022/05/03 05:22:27;;;;;;;7.45;0.82;;;22.50;57.40;;;;;;5054968;28;20067;-68
2022/05/03 05:24:54;;;;;;;4.22;1.20;;;22.50;57.30;;;;;;5065142;28;20107;-63
2022/05/03 05:27:21;;;;;;;2.67;1.10;;;22.40;57.50;;;;;;5060874;28;20025;-71
2022/05/03 05:29:49;;;;;;;3.08;0.75;;;22.30;57.70;;;;;;5068474;28;20013;-71
2022/05/03 05:32:16;;;;;;;4.75;0.60;;;22.30;57.60;;;;;;5067971;28;20560;-68
2022/05/03 05:34:43;;;;;;;5.53;1.08;;;22.30;58.10;;;;;;5082202;28;20098;-67
2022/05/03 05:37:10;;;;;;;3.88;0.73;;;22.20;58.80;;;;;;5067027;28;20065;-66
2022/05/03 05:39:38;;;;;;;1.27;0.60;;;22.20;59.10;;;;;;5060133;28;20485;-67
2022/05/03 05:42:05;;;;;;;2.75;0.70;;;22.10;58.90;;;;;;5060791;28;20055;-70
2022/05/03 05:44:32;;;;;;;1.98;0.45;;;22.00;59.60;;;;;;5056017;28;20619;-70
2022/05/03 05:46:59;;;;;;;2.55;0.50;;;21.90;60.20;;;;;;5053783;28;20408;-68
2022/05/03 05:49:27;;;;;;;1.20;0.50;;;21.80;60.10;;;;;;5058315;28;20025;-69
2022/05/03 05:53:31;;;;;;;4.90;0.68;;;21.60;60.50;;;;;;5059727;28;20080;-69
2022/05/03 05:54:41;;;;;;;3.22;0.70;;;21.60;61.80;;;;;;5064626;28;20036;-66
2022/05/03 05:57:08;;;;;;;3.53;1.40;;;21.50;61.70;;;;;;5063880;28;20093;-65
2022/05/03 05:59:35;;;;;;;1.60;0.57;;;21.40;62.00;;;;;;5064681;28;20037;-69
2022/05/03 06:02:03;;;;;;;7.18;1.00;;;21.30;62.20;;;;;;5064150;28;20032;-68
2022/05/03 06:04:30;;;;;;;3.78;0.60;;;21.20;62.20;;;;;;5064536;28;20017;-67
2022/05/03 06:06:57;;;;;;;3.95;0.93;;;21.10;62.60;;;;;;5064100;28;20036;-66
2022/05/03 06:09:24;;;;;;;2.10;0.70;;;21.00;62.50;;;;;;5067364;28;20024;-67
2022/05/03 06:11:52;;;;;;;3.40;0.70;;;20.90;63.60;;;;;;5067144;28;20258;-67
2022/05/03 06:14:19;;;;;;;2.97;0.70;;;20.80;63.30;;;;;;5067578;28;20033;-67
2022/05/03 06:16:51;;;;;;;2.00;0.93;;;20.80;64.20;;;;;;5062054;28;20029;-72
2022/05/03 06:19:19;;;;;;;4.40;0.77;;;20.70;64.00;;;;;;5061096;28;20509;-70
2022/05/03 06:21:47;;;;;;;3.58;0.98;;;20.60;65.00;;;;;;5062240;28;20027;-71
2022/05/03 06:24:14;;;;;;;2.85;0.77;;;20.50;65.30;;;;;;5060056;28;20047;-70
2022/05/03 06:26:41;;;;;;;4.05;1.10;;;20.40;65.80;;;;;;5060601;28;20320;-69
2022/05/03 06:29:09;;;;;;;3.33;0.55;;;20.30;65.90;;;;;;5059543;28;20406;-69
2022/05/03 06:31:43;;;;;;;1.42;0.60;;;20.30;66.30;;;;;;5060978;28;20397;-69
2022/05/03 06:34:11;;;;;;;3.28;0.50;;;20.20;66.60;;;;;;5060985;28;20033;-70
2022/05/03 06:36:38;;;;;;;2.25;0.95;;;20.10;67.10;;;;;;5063203;28;20098;-67
2022/05/03 06:39:06;;;;;;;2.83;0.73;;;20.00;67.40;;;;;;5059918;28;20016;-65
2022/05/03 06:41:34;;;;;;;3.25;0.77;;;19.90;67.80;;;;;;5060450;28;20020;-65
2022/05/03 06:44:01;;;;;;;4.80;1.20;;;19.80;68.70;;;;;;5059436;28;20021;-68
2022/05/03 06:46:29;;;;;;;3.70;0.60;;;19.70;69.30;;;;;;5062413;28;20098;-68
2022/05/03 06:48:57;;;;;;;2.47;0.70;;;19.60;69.10;;;;;;5063406;28;20027;-68
2022/05/03 06:51:25;;;;;;;4.72;1.17;;;19.60;69.50;;;;;;5065458;28;20028;-68
2022/05/03 06:53:52;;;;;;;5.78;1.00;;;19.40;69.80;;;;;;5061619;28;20039;-69
2022/05/03 06:56:19;;;;;;;6.07;1.50;;;19.40;70.40;;;;;;5058882;28;20028;-68
2022/05/03 06:58:46;;;;;;;9.25;1.38;;;19.20;70.70;;;;;;5063101;28;20148;-66
2022/05/03 07:01:15;;;;;;;3.75;0.80;;;19.10;71.20;;;;;;5060613;28;20106;-68
2022/05/03 07:03:43;;;;;;;3.17;1.02;;;19.00;71.30;;;;;;5061542;28;20043;-70
2022/05/03 07:06:10;;;;;;;3.13;0.80;;;18.90;72.10;;;;;;5063293;28;20021;-71
2022/05/03 07:08:38;;;;;;;5.70;1.00;;;18.80;72.50;;;;;;5062599;28;20384;-67
2022/05/03 07:11:06;;;;;;;2.42;0.80;;;18.60;73.10;;;;;;5060224;28;20489;-65
2022/05/03 07:13:33;;;;;;;3.55;1.30;;;18.50;73.60;;;;;;5061224;28;20130;-68
2022/05/03 07:16:00;;;;;;;2.25;0.88;;;18.40;74.10;;;;;;5059928;28;20043;-67
2022/05/03 07:23:58;;;;;;;4.97;1.15;;;18.00;76.40;;;;;;5060823;28;20516;-65
2022/05/03 07:26:25;;;;;;;2.60;1.20;;;17.90;76.70;;;;;;5060491;28;20032;-65
2022/05/03 07:28:52;;;;;;;7.50;1.92;;;17.70;77.00;;;;;;5061344;28;20028;-66
2022/05/03 07:31:21;;;;;;;6.32;1.52;;;17.60;77.30;;;;;;5060508;28;20389;-65
2022/05/03 07:33:48;;;;;;;6.20;1.70;;;17.50;78.20;;;;;;5055478;28;20084;-65
2022/05/03 07:36:19;;;;;;;8.55;1.45;;;17.40;79.30;;;;;;5058392;28;20211;-65
2022/05/03 07:38:46;;;;;;;5.93;2.13;;;17.50;80.10;;;;;;5060777;28;20031;-66
2022/05/03 07:41:14;;;;;;;4.72;1.55;;;17.70;80.00;;;;;;5058881;28;20095;-65
2022/05/03 07:43:42;;;;;;;7.93;1.45;;;17.70;79.00;;;;;;5057125;28;20020;-66
2022/05/03 07:46:12;;;;;;;5.20;1.75;;;17.70;80.00;;;;;;5054849;28;20037;-66
2022/05/03 07:48:39;;;;;;;7.43;1.65;;;17.70;80.10;;;;;;5068787;28;20432;-64
2022/05/03 07:51:06;;;;;;;6.68;2.00;;;17.80;82.10;;;;;;5066318;28;20039;-64
2022/05/03 07:53:35;;;;;;;9.40;1.95;;;17.80;83.20;;;;;;5069236;28;20016;-65
2022/05/03 07:56:02;;;;;;;8.05;1.80;;;17.90;83.50;;;;;;5064005;28;20092;-63
2022/05/03 07:58:29;;;;;;;8.80;2.47;;;17.90;84.60;;;;;;5060488;28;20021;-65
2022/05/03 08:00:57;;;;;;;8.55;1.83;;;17.90;84.90;;;;;;5058998;28;20022;-64
2022/05/03 08:03:24;;;;;;;8.57;2.25;;;17.90;85.40;;;;;;5058952;28;20035;-66
2022/05/03 08:05:52;;;;;;;8.65;2.08;;;17.90;85.60;;;;;;5059857;28;20079;-64
2022/05/03 08:08:19;;;;;;;9.15;1.70;;;17.80;86.20;;;;;;5056498;28;20526;-65
2022/05/03 08:10:47;;;;;;;6.40;1.98;;;17.70;87.30;;;;;;5057946;28;20029;-64
2022/05/03 08:13:14;;;;;;;7.00;1.60;;;17.60;87.00;;;;;;5056749;28;20029;-63
2022/05/03 08:15:41;;;;;;;11.25;1.73;;;17.60;87.80;;;;;;5060561;28;20033;-64
2022/05/03 08:18:08;;;;;;;5.13;1.73;;;17.40;88.10;;;;;;5057132;28;20048;-63
2022/05/03 08:20:36;;;;;;;8.43;2.45;;;17.50;88.40;;;;;;5057912;28;20118;-63
2022/05/03 08:23:03;;;;;;;11.07;2.30;;;17.50;88.30;;;;;;5060184;28;20029;-63
2022/05/03 08:25:32;;;;;;;6.15;1.83;;;17.30;88.40;;;;;;5062968;28;20047;-64
2022/05/03 08:27:59;;;;;;;6.40;2.15;;;17.30;88.60;;;;;;5061166;28;20048;-63
2022/05/03 08:30:26;;;;;;;7.90;1.83;;;17.20;89.10;;;;;;5061860;28;20028;-64
2022/05/03 08:32:53;;;;;;;7.88;2.20;;;17.10;89.30;;;;;;5059751;28;20040;-63
2022/05/03 08:35:24;;;;;;;8.57;2.13;;;17.00;89.60;;;;;;5057361;28;20033;-63
2022/05/03 08:43:24;;;;;;;8.40;1.73;;;16.80;90.30;;;;;;5067018;28;20626;-60
2022/05/03 08:45:52;;;;;;;5.40;1.95;;;16.80;90.50;;;;;;5058034;28;20036;-60
2022/05/03 08:48:27;;;;;;;6.13;2.38;;;16.70;90.70;;;;;;5066594;28;20116;-60
2022/05/03 08:50:55;;;;;;;10.48;2.03;;;16.70;90.40;;;;;;5062980;28;20020;-61
2022/05/03 08:53:23;;;;;;;9.77;2.45;;;16.70;90.50;;;;;;5061523;28;20048;-60
2022/05/03 08:55:50;;;;;;;9.10;2.10;;;16.60;90.70;;;;;;5063757;28;20397;-61
2022/05/03 08:58:19;;;;;;;9.18;1.85;;;16.60;91.00;;;;;;5058288;28;20143;-61
2022/05/03 09:00:46;;;;;;;7.80;2.15;;;16.60;91.00;;;;;;5059764;28;20560;-61
2022/05/03 09:03:15;;;;;;;4.90;2.13;;;16.60;91.10;;;;;;5066104;28;20031;-61
2022/05/03 09:05:42;;;;;;;6.30;2.20;;;16.50;90.90;;;;;;5062820;28;20095;-61
2022/05/03 09:08:12;;;;;;;6.45;2.30;;;16.50;91.30;;;;;;5056215;28;20055;-61
2022/05/03 09:10:39;;;;;;;7.90;2.45;;;16.60;91.10;;;;;;5056435;28;20041;-61
2022/05/03 09:13:22;;;;;;;8.07;3.53;;;16.60;91.20;;;;;;5062923;28;20036;-61
2022/05/03 09:16:09;;;;;;;8.02;2.35;;;16.60;91.00;;;;;;5056415;28;20547;-60
2022/05/03 09:18:37;;;;;;;10.63;1.70;;;16.60;90.80;;;;;;5062776;28;20403;-60
2022/05/03 09:24:03;;;;;;;6.68;2.00;;;16.50;90.80;;;;;;5063103;28;20043;-60
2022/05/03 09:26:30;;;;;;;6.25;2.75;;;16.40;90.90;;;;;;5061282;28;20033;-61
2022/05/03 09:29:14;;;;;;;10.85;2.72;;;16.40;91.40;;;;;;5058981;28;20442;-61
2022/05/03 09:31:43;;;;;;;9.10;2.50;;;16.30;91.40;;;;;;5059176;28;20078;-61
2022/05/03 09:34:26;;;;;;;7.55;2.17;;;16.30;91.50;;;;;;5059615;28;20087;-61
2022/05/03 09:36:55;;;;;;;7.88;2.17;;;16.40;91.20;;;;;;5064540;28;20036;-61
2022/05/03 09:39:33;;;;;;;9.45;2.65;;;16.40;91.20;;;;;;5062804;28;20032;-60
2022/05/03 09:42:16;;;;;;;5.78;2.25;;;16.50;91.10;;;;;;5067647;28;20438;-61
2022/05/03 09:44:58;;;;;;;5.97;2.15;;;16.40;90.90;;;;;;5061962;28;20024;-61
2022/05/03 09:47:29;;;;;;;11.23;2.33;;;16.30;91.20;;;;;;5070519;28;20044;-60
2022/05/03 09:49:57;;;;;;;11.60;2.38;;;16.20;91.10;;;;;;5060646;28;20389;-61
2022/05/03 09:52:30;;;;;;;6.18;1.90;;;16.10;91.20;;;;;;5069346;28;20017;-61
2022/05/03 09:55:03;;;;;;;10.07;1.88;;;15.90;91.30;;;;;;5066191;28;20040;-62
2022/05/03 09:57:32;;;;;;;3.30;1.60;;;15.80;91.30;;;;;;5065056;28;20115;-61
2022/05/03 10:00:01;;;;;;;9.43;2.13;;;15.70;92.00;;;;;;5060754;28;20028;-62
2022/05/03 10:02:30;;;;;;;6.70;1.75;;;15.60;92.00;;;;;;5054592;28;20135;-64
2022/05/03 10:04:59;;;;;;;7.28;1.50;;;15.50;92.10;;;;;;5056664;28;20073;-64
2022/05/03 10:07:29;;;;;;;7.75;1.90;;;15.40;92.40;;;;;;5065816;28;20025;-63
2022/05/03 10:09:56;;;;;;;6.10;1.98;;;15.30;92.50;;;;;;5059179;28;20085;-63
2022/05/03 10:12:23;;;;;;;12.30;2.10;;;15.30;92.70;;;;;;5050342;28;20024;-62
2022/05/03 10:14:51;;;;;;;7.18;1.90;;;15.30;93.10;;;;;;5062365;28;20029;-63
2022/05/03 10:20:42;;;;;;;12.57;2.70;;;15.20;92.90;;;;;;5064658;28;20082;-60
2022/05/03 10:23:30;;;;;;;11.38;3.10;;;15.10;92.80;;;;;;5058108;28;20097;-60
2022/05/03 10:25:58;;;;;;;12.20;2.92;;;15.00;93.40;;;;;;5060818;28;20029;-61
2022/05/03 10:28:46;;;;;;;7.63;3.13;;;15.00;93.10;;;;;;5062355;28;20085;-61
2022/05/03 10:31:21;;;;;;;9.77;3.05;;;14.90;93.20;;;;;;5055996;28;20039;-60
2022/05/03 10:33:48;;;;;;;13.23;2.83;;;14.80;93.20;;;;;;5059510;28;20049;-62
2022/05/03 10:36:34;;;;;;;6.05;2.20;;;14.80;93.40;;;;;;5066230;28;20123;-60
2022/05/03 10:39:05;;;;;;;9.98;2.40;;;14.70;93.50;;;;;;5054757;28;20025;-60
2022/05/03 10:41:51;;;;;;;10.52;2.92;;;14.60;93.70;;;;;;5056882;28;20079;-59
2022/05/03 10:44:42;;;;;;;10.63;2.58;;;14.50;94.00;;;;;;5061873;28;20393;-61
2022/05/03 10:47:11;;;;;;;9.75;2.15;;;14.50;94.30;;;;;;5057098;28;20104;-62
2022/05/03 10:50:19;;;;;;;6.50;2.30;;;14.50;94.00;;;;;;5060522;28;20074;-62
2022/05/03 10:52:59;;;;;;;10.55;2.90;;;14.40;94.20;;;;;;5054410;28;20039;-61
2022/05/03 10:55:28;;;;;;;9.80;2.40;;;14.40;94.50;;;;;;5053964;28;20060;-62
2022/05/03 10:58:25;;;;;;;6.63;2.03;;;14.40;94.20;;;;;;5057648;28;20028;-62
2022/05/03 11:01:31;;;;;;;8.48;2.28;;;14.30;94.00;;;;;;5057654;28;20127;-62
2022/05/03 11:04:01;;;;;;;7.65;2.15;;;14.20;94.20;;;;;;5059451;28;20029;-62
2022/05/03 11:06:28;;;;;;;5.78;1.95;;;14.20;94.10;;;;;;5059928;28;20106;-62
2022/05/03 11:11:47;;;;;;;11.98;2.58;;;14.00;94.40;;;;;;5061520;28;20045;-62
2022/05/03 11:14:24;;;;;;;9.32;2.97;;;14.00;94.50;;;;;;5060758;28;20036;-62
2022/05/03 11:16:54;;;;;;;7.10;3.00;;;14.00;95.00;;;;;;5055848;28;20064;-62
2022/05/03 11:19:23;;;;;;;12.80;2.90;;;14.00;95.10;;;;;;5062440;28;20017;-60
2022/05/03 11:21:51;;;;;;;5.45;2.42;;;14.00;95.10;;;;;;5066095;28;20058;-62
2022/05/03 11:24:19;;;;;;;5.65;2.35;;;14.00;95.20;;;;;;5056396;28;20020;-62
2022/05/03 11:26:47;;;;;;;7.28;2.22;;;13.90;94.90;;;;;;5060956;28;20021;-61
2022/05/03 11:29:15;;;;;;;6.15;2.47;;;13.90;95.00;;;;;;5057413;28;20039;-62
2022/05/03 11:31:53;;;;;;;10.85;3.03;;;13.80;94.90;;;;;;5057380;28;20034;-62
2022/05/03 11:34:21;;;;;;;7.15;2.50;;;13.80;95.00;;;;;;5065009;28;20036;-62
2022/05/03 11:36:52;;;;;;;8.45;2.28;;;13.70;95.00;;;;;;5063003;28;20037;-60
2022/05/03 11:39:21;;;;;;;13.80;2.58;;;13.70;95.10;;;;;;5050127;28;20058;-60
2022/05/03 11:41:52;;;;;;;12.70;2.42;;;13.70;95.20;;;;;;5064003;28;20056;-59
2022/05/03 11:44:32;;;;;;;7.03;2.75;;;13.70;95.60;;;;;;5062010;28;20025;-60
2022/05/03 11:47:03;;;;;;;11.48;2.90;;;13.70;95.40;;;;;;5063024;28;20040;-60
2022/05/03 11:49:32;;;;;;;15.18;4.05;;;13.70;95.40;;;;;;5061149;28;20104;-59
2022/05/03 11:57:42;;;;;;;9.05;3.30;;;13.70;95.70;;;;;;5056071;28;20039;-60
2022/05/03 12:00:13;;;;;;;11.55;3.10;;;13.70;95.80;;;;;;5067013;28;20035;-61
2022/05/03 12:02:44;;;;;;;20.70;3.67;;;13.70;95.70;;;;;;5060663;28;20772;-60
2022/05/03 12:05:18;;;;;;;12.32;3.45;;;13.60;95.90;;;;;;5061318;28;20040;-61
2022/05/03 12:07:49;;;;;;;17.88;3.05;;;13.60;96.30;;;;;;5063312;28;20454;-62
2022/05/03 12:10:34;;;;;;;16.42;3.28;;;13.60;96.00;;;;;;5059003;28;20107;-60
2022/05/03 12:13:19;;;;;;;6.35;2.40;;;13.60;95.90;;;;;;5060007;28;20150;-61
2022/05/03 12:16:08;;;;;;;9.75;3.20;;;13.60;95.90;;;;;;5060168;28;20087;-61
2022/05/03 12:18:40;;;;;;;9.45;3.10;;;13.50;95.90;;;;;;5063568;28;20044;-60
2022/05/03 12:21:34;;;;;;;6.25;2.80;;;13.50;96.00;;;;;;5059639;28;20041;-60
2022/05/03 12:24:05;;;;;;;12.52;5.20;;;13.50;95.90;;;;;;5052625;28;20420;-62
2022/05/03 12:26:44;;;;;;;13.90;3.83;;;13.50;96.30;;;;;;5062213;28;20115;-60
2022/05/03 12:29:12;;;;;;;8.18;3.70;;;13.60;96.90;;;;;;5064218;28;20029;-61
2022/05/03 12:31:43;;;;;;;18.02;4.03;;;13.60;96.40;;;;;;5061327;28;20033;-61
2022/05/03 12:34:20;;;;;;;10.23;3.40;;;13.60;96.20;;;;;;5057009;28;20489;-60
2022/05/03 12:36:48;;;;;;;8.77;4.47;;;13.50;96.10;;;;;;5064483;28;20044;-61
2022/05/03 12:39:20;;;;;;;9.38;3.42;;;13.50;96.40;;;;;;5080457;28;20028;-60
2022/05/03 12:42:01;;;;;;;10.60;3.83;;;13.40;96.00;;;;;;5058007;28;20452;-58
2022/05/03 12:44:46;;;;;;;14.52;3.97;;;13.30;96.00;;;;;;5060446;28;20020;-59
2022/05/03 12:47:13;;;;;;;8.57;4.13;;;13.30;96.20;;;;;;5058369;28;20063;-59
2022/05/03 12:49:41;;;;;;;13.95;5.00;;;13.30;96.20;;;;;;5059548;28;20023;-60
2022/05/03 12:52:09;;;;;;;10.63;3.35;;;13.30;96.30;;;;;;5056075;28;20025;-59
2022/05/03 12:54:41;;;;;;;13.80;4.07;;;13.20;95.90;;;;;;5058616;28;20052;-59
2022/05/03 12:59:58;;;;;;;17.13;4.80;;;13.10;96.00;;;;;;5057756;28;20044;-59
2022/05/03 13:02:27;;;;;;;11.90;3.97;;;13.10;96.20;;;;;;5063935;28;20033;-59
2022/05/03 13:04:54;;;;;;;16.42;3.78;;;13.00;96.10;;;;;;5064791;28;20028;-61
2022/05/03 13:07:21;;;;;;;19.27;5.00;;;13.00;96.20;;;;;;5060826;28;20024;-60
2022/05/03 13:09:49;;;;;;;11.52;4.78;;;13.00;96.30;;;;;;5061648;28;20025;-58
2022/05/03 13:12:16;;;;;;;14.88;4.55;;;13.00;96.30;;;;;;5067885;28;20067;-59
2022/05/03 13:14:44;;;;;;;20.92;5.45;;;13.00;96.30;;;;;;5065808;28;20029;-59
2022/05/03 13:17:13;;;;;;;15.98;3.85;;;13.00;96.40;;;;;;5069596;28;20548;-59
2022/05/03 13:19:40;;;;;;;10.48;3.58;;;12.90;96.40;;;;;;5071985;28;20458;-59
2022/05/03 13:22:07;;;;;;;11.82;4.82;;;12.90;96.40;;;;;;5069059;28;20021;-58
2022/05/03 13:24:34;;;;;;;14.38;4.13;;;12.90;96.20;;;;;;5069683;28;20054;-59
2022/05/03 13:27:02;;;;;;;16.00;5.18;;;12.80;96.30;;;;;;5070726;28;20051;-59
2022/05/03 13:29:30;;;;;;;13.65;4.60;;;12.90;96.50;;;;;;5068371;28;20029;-59
2022/05/03 13:31:57;;;;;;;15.23;4.93;;;12.90;96.60;;;;;;5067333;28;20082;-59
2022/05/03 13:34:24;;;;;;;19.90;4.80;;;12.80;96.50;;;;;;5068238;28;20094;-59
2022/05/03 13:42:22;;;;;;;14.13;4.30;;;12.70;96.20;;;;;;5065635;28;20031;-59
2022/05/03 13:44:49;;;;;;;14.80;4.15;;;12.60;96.40;;;;;;5068835;28;20043;-59
2022/05/03 13:47:16;;;;;;;15.63;5.03;;;12.60;96.50;;;;;;5066973;28;20017;-59
2022/05/03 13:49:43;;;;;;;14.15;3.85;;;12.60;96.70;;;;;;5070591;28;20416;-59
2022/05/03 13:52:11;;;;;;;10.52;4.20;;;12.60;96.50;;;;;;5070099;28;20358;-59
2022/05/03 13:54:38;;;;;;;11.43;3.85;;;12.50;96.10;;;;;;5063400;28;20025;-59
2022/05/03 13:57:06;;;;;;;12.10;5.32;;;12.30;95.90;;;;;;5063183;28;20448;-59
2022/05/03 13:59:33;;;;;;;8.38;4.15;;;12.30;95.90;;;;;;5052702;28;20027;-65